Quinn — WDJ4737 — position and weather

sailwx.info

Track history (hours):
 
Tides and Currents Weather Stations Pressure Air Temp Water Temp Dewpoint Dewpoint Depression Visibility Wind Speed Wind Dir Waves Ship Positions

Quinn

Owner: Round Bay, LLC, Washington, DC. More information available from US FCC via Universal Licensing System and Coast Guard Vessel Documentation Center.

Last reported at 2017-Oct-19 19:39 UTC. Time now 2017-Oct-22 12:15 UTC.
Position N 38°58' W 076°29'.

Length 4 m.

Type: Sailing vessel. MMSI: 367780630.

Date/timePositionNaut miles runAvg speedWind from/ knotsBaromVisibWave heightAir tempDewpointWater temp
2017-Oct-19 19:39N 38°58' W 076°29'0 0.0
2017-Oct-19 19:30N 38°58' W 076°29'0 0.0
2017-Oct-19 19:00N 38°58' W 076°29'  
2017-Oct-15 19:49N 38°58' W 076°29'0 0.7
2017-Oct-15 19:31N 38°59' W 076°29'1 2.5
2017-Oct-15 19:00N 38°58' W 076°27'2 4.6
2017-Oct-15 18:30N 38°56' W 076°26'3 3.8
2017-Oct-15 17:37N 38°53' W 076°24'1 5.7
2017-Oct-15 17:23N 38°54' W 076°25'1 2.2
2017-Oct-15 16:50N 38°54' W 076°24'1 1.5
2017-Oct-15 16:30N 38°55' W 076°24'3 5.5
2017-Oct-15 16:00N 38°57' W 076°26'2 3.9
2017-Oct-15 15:30N 38°58' W 076°28'  
Track history (hours):
 
Tides and Currents Weather Stations Pressure Air Temp Water Temp Dewpoint Dewpoint Depression Visibility Wind Speed Wind Dir Waves Ship Positions

Quinn

Owner: Round Bay, LLC, Washington, DC. More information available from US FCC via Universal Licensing System and Coast Guard Vessel Documentation Center.

Last reported at 2017-Oct-19 19:39 UTC. Time now 2017-Oct-22 12:15 UTC.
Position N 38°58' W 076°29'.

Length 4 m.

Type: Sailing vessel. MMSI: 367780630.

Date/timePositionNaut miles runAvg speedWind from/ knotsBaromVisibWave heightAir tempDewpointWater temp
2017-Oct-19 19:39N 38°58' W 076°29'0 0.0
2017-Oct-19 19:30N 38°58' W 076°29'0 0.0
2017-Oct-19 19:00N 38°58' W 076°29'  
2017-Oct-15 19:49N 38°58' W 076°29'0 0.7
2017-Oct-15 19:31N 38°59' W 076°29'1 2.5
2017-Oct-15 19:00N 38°58' W 076°27'2 4.6
2017-Oct-15 18:30N 38°56' W 076°26'3 3.8
2017-Oct-15 17:37N 38°53' W 076°24'1 5.7
2017-Oct-15 17:23N 38°54' W 076°25'1 2.2
2017-Oct-15 16:50N 38°54' W 076°24'1 1.5
2017-Oct-15 16:30N 38°55' W 076°24'3 5.5
2017-Oct-15 16:00N 38°57' W 076°26'2 3.9
2017-Oct-15 15:30N 38°58' W 076°28'  

Dump ship's entire track history